sensor_id;sensor_type;location;lat;lon;timestamp;P1;durP1;ratioP1;P2;durP2;ratioP2
60054;SDS011;45930;53.514;55.904;2023-02-18T00:00:15;69.97;;;36.40;;
60054;SDS011;45930;53.514;55.904;2023-02-18T00:01:19;70.43;;;39.20;;
60054;SDS011;45930;53.514;55.904;2023-02-18T00:02:21;60.45;;;36.85;;
60054;SDS011;45930;53.514;55.904;2023-02-18T00:03:25;63.30;;;39.40;;
60054;SDS011;45930;53.514;55.904;2023-02-18T00:04:27;56.65;;;31.95;;
60054;SDS011;45930;53.514;55.904;2023-02-18T00:05:28;55.20;;;32.87;;
60054;SDS011;45930;53.514;55.904;2023-02-18T00:06:30;68.10;;;33.97;;
60054;SDS011;45930;53.514;55.904;2023-02-18T00:07:36;61.95;;;34.80;;
60054;SDS011;45930;53.514;55.904;2023-02-18T00:08:38;70.63;;;37.20;;
60054;SDS011;45930;53.514;55.904;2023-02-18T00:09:39;60.17;;;35.28;;
60054;SDS011;45930;53.514;55.904;2023-02-18T00:10:40;64.73;;;38.37;;
60054;SDS011;45930;53.514;55.904;2023-02-18T00:11:41;69.03;;;37.33;;
60054;SDS011;45930;53.514;55.904;2023-02-18T00:12:42;66.67;;;36.80;;
60054;SDS011;45930;53.514;55.904;2023-02-18T00:13:43;74.72;;;40.08;;
60054;SDS011;45930;53.514;55.904;2023-02-18T00:14:51;62.22;;;38.88;;
60054;SDS011;45930;53.514;55.904;2023-02-18T00:15:52;68.47;;;36.63;;
60054;SDS011;45930;53.514;55.904;2023-02-18T00:16:52;67.37;;;37.00;;
60054;SDS011;45930;53.514;55.904;2023-02-18T00:17:56;68.33;;;37.37;;
60054;SDS011;45930;53.514;55.904;2023-02-18T00:19:05;60.72;;;36.17;;
60054;SDS011;45930;53.514;55.904;2023-02-18T00:20:06;66.07;;;38.15;;
60054;SDS011;45930;53.514;55.904;2023-02-18T00:21:08;78.25;;;38.83;;
60054;SDS011;45930;53.514;55.904;2023-02-18T00:22:08;68.30;;;38.20;;
60054;SDS011;45930;53.514;55.904;2023-02-18T00:23:09;66.97;;;37.60;;
60054;SDS011;45930;53.514;55.904;2023-02-18T00:24:11;69.23;;;37.67;;
60054;SDS011;45930;53.514;55.904;2023-02-18T00:25:16;67.70;;;35.85;;
60054;SDS011;45930;53.514;55.904;2023-02-18T00:26:17;61.97;;;37.03;;
60054;SDS011;45930;53.514;55.904;2023-02-18T00:27:18;60.30;;;35.25;;
60054;SDS011;45930;53.514;55.904;2023-02-18T00:28:19;68.63;;;37.37;;
60054;SDS011;45930;53.514;55.904;2023-02-18T00:29:20;74.57;;;38.00;;
60054;SDS011;45930;53.514;55.904;2023-02-18T00:30:21;54.23;;;33.93;;
60054;SDS011;45930;53.514;55.904;2023-02-18T00:31:25;55.93;;;33.57;;
60054;SDS011;45930;53.514;55.904;2023-02-18T00:32:28;63.08;;;34.00;;
60054;SDS011;45930;53.514;55.904;2023-02-18T00:33:29;63.90;;;34.87;;
60054;SDS011;45930;53.514;55.904;2023-02-18T00:34:29;62.53;;;35.80;;
60054;SDS011;45930;53.514;55.904;2023-02-18T00:35:30;62.10;;;36.37;;
60054;SDS011;45930;53.514;55.904;2023-02-18T00:36:31;70.67;;;36.70;;
60054;SDS011;45930;53.514;55.904;2023-02-18T00:37:32;64.65;;;35.83;;
60054;SDS011;45930;53.514;55.904;2023-02-18T00:38:33;62.47;;;35.90;;
60054;SDS011;45930;53.514;55.904;2023-02-18T00:39:34;57.47;;;34.03;;
60054;SDS011;45930;53.514;55.904;2023-02-18T00:40:38;64.27;;;34.63;;
60054;SDS011;45930;53.514;55.904;2023-02-18T00:41:40;64.82;;;35.95;;
60054;SDS011;45930;53.514;55.904;2023-02-18T00:42:41;67.10;;;38.33;;
60054;SDS011;45930;53.514;55.904;2023-02-18T00:43:42;64.27;;;37.50;;
60054;SDS011;45930;53.514;55.904;2023-02-18T00:44:43;61.60;;;35.80;;
60054;SDS011;45930;53.514;55.904;2023-02-18T00:45:44;62.17;;;35.53;;
60054;SDS011;45930;53.514;55.904;2023-02-18T00:46:44;66.37;;;36.97;;
60054;SDS011;45930;53.514;55.904;2023-02-18T00:47:47;65.70;;;36.97;;
60054;SDS011;45930;53.514;55.904;2023-02-18T00:48:48;62.47;;;33.90;;
60054;SDS011;45930;53.514;55.904;2023-02-18T00:49:48;67.67;;;36.13;;
60054;SDS011;45930;53.514;55.904;2023-02-18T00:50:49;65.83;;;33.90;;
60054;SDS011;45930;53.514;55.904;2023-02-18T00:51:50;60.73;;;33.40;;
60054;SDS011;45930;53.514;55.904;2023-02-18T00:52:51;67.53;;;36.27;;
60054;SDS011;45930;53.514;55.904;2023-02-18T00:53:51;64.73;;;33.20;;
60054;SDS011;45930;53.514;55.904;2023-02-18T00:54:53;61.85;;;33.60;;
60054;SDS011;45930;53.514;55.904;2023-02-18T00:55:53;57.40;;;31.07;;
60054;SDS011;45930;53.514;55.904;2023-02-18T00:56:54;56.85;;;32.38;;
60054;SDS011;45930;53.514;55.904;2023-02-18T00:57:55;54.83;;;29.90;;
60054;SDS011;45930;53.514;55.904;2023-02-18T00:58:56;57.67;;;33.07;;
60054;SDS011;45930;53.514;55.904;2023-02-18T00:59:57;56.83;;;29.53;;
60054;SDS011;45930;53.514;55.904;2023-02-18T01:00:57;57.83;;;30.87;;
60054;SDS011;45930;53.514;55.904;2023-02-18T01:01:58;51.87;;;29.73;;
60054;SDS011;45930;53.514;55.904;2023-02-18T01:02:59;50.80;;;28.17;;
60054;SDS011;45930;53.514;55.904;2023-02-18T01:04:00;48.93;;;29.03;;
60054;SDS011;45930;53.514;55.904;2023-02-18T01:05:01;56.77;;;29.20;;
60054;SDS011;45930;53.514;55.904;2023-02-18T01:06:02;50.40;;;28.60;;
60054;SDS011;45930;53.514;55.904;2023-02-18T01:07:04;56.85;;;29.17;;
60054;SDS011;45930;53.514;55.904;2023-02-18T01:08:05;47.07;;;28.33;;
60054;SDS011;45930;53.514;55.904;2023-02-18T01:09:08;47.67;;;28.15;;
60054;SDS011;45930;53.514;55.904;2023-02-18T01:10:09;58.75;;;30.15;;
60054;SDS011;45930;53.514;55.904;2023-02-18T01:11:11;56.78;;;30.33;;
60054;SDS011;45930;53.514;55.904;2023-02-18T01:12:11;59.33;;;30.63;;
60054;SDS011;45930;53.514;55.904;2023-02-18T01:13:12;55.50;;;29.63;;
60054;SDS011;45930;53.514;55.904;2023-02-18T01:14:14;49.83;;;29.55;;
60054;SDS011;45930;53.514;55.904;2023-02-18T01:15:15;52.37;;;29.67;;
60054;SDS011;45930;53.514;55.904;2023-02-18T01:16:17;52.80;;;29.02;;
60054;SDS011;45930;53.514;55.904;2023-02-18T01:17:18;59.47;;;31.95;;
60054;SDS011;45930;53.514;55.904;2023-02-18T01:18:18;61.27;;;30.30;;
60054;SDS011;45930;53.514;55.904;2023-02-18T01:19:20;50.47;;;29.33;;
60054;SDS011;45930;53.514;55.904;2023-02-18T01:20:21;57.53;;;29.33;;
60054;SDS011;45930;53.514;55.904;2023-02-18T01:21:22;60.15;;;30.88;;
60054;SDS011;45930;53.514;55.904;2023-02-18T01:22:22;52.77;;;30.50;;
60054;SDS011;45930;53.514;55.904;2023-02-18T01:23:23;57.43;;;29.50;;
60054;SDS011;45930;53.514;55.904;2023-02-18T01:24:24;57.60;;;30.67;;
60054;SDS011;45930;53.514;55.904;2023-02-18T01:25:25;49.87;;;28.07;;
60054;SDS011;45930;53.514;55.904;2023-02-18T01:26:25;45.20;;;28.20;;
60054;SDS011;45930;53.514;55.904;2023-02-18T01:27:26;55.27;;;29.17;;
60054;SDS011;45930;53.514;55.904;2023-02-18T01:28:28;57.78;;;29.55;;
60054;SDS011;45930;53.514;55.904;2023-02-18T01:29:29;50.13;;;28.40;;
60054;SDS011;45930;53.514;55.904;2023-02-18T01:30:30;50.70;;;28.83;;
60054;SDS011;45930;53.514;55.904;2023-02-18T01:31:31;44.60;;;27.73;;
60054;SDS011;45930;53.514;55.904;2023-02-18T01:32:31;52.60;;;26.87;;
60054;SDS011;45930;53.514;55.904;2023-02-18T01:33:32;53.83;;;25.33;;
60054;SDS011;45930;53.514;55.904;2023-02-18T01:34:33;47.10;;;25.55;;
60054;SDS011;45930;53.514;55.904;2023-02-18T01:35:36;41.80;;;25.57;;
60054;SDS011;45930;53.514;55.904;2023-02-18T01:36:38;52.10;;;25.30;;
60054;SDS011;45930;53.514;55.904;2023-02-18T01:37:39;47.07;;;25.90;;
60054;SDS011;45930;53.514;55.904;2023-02-18T01:38:40;48.23;;;25.97;;
60054;SDS011;45930;53.514;55.904;2023-02-18T01:39:40;41.83;;;23.13;;
60054;SDS011;45930;53.514;55.904;2023-02-18T01:40:49;45.23;;;25.90;;
60054;SDS011;45930;53.514;55.904;2023-02-18T01:41:51;42.78;;;23.90;;
60054;SDS011;45930;53.514;55.904;2023-02-18T01:42:52;41.57;;;22.17;;
60054;SDS011;45930;53.514;55.904;2023-02-18T01:45:35;49.10;;;24.30;;
60054;SDS011;45930;53.514;55.904;2023-02-18T01:46:47;40.00;;;22.27;;
60054;SDS011;45930;53.514;55.904;2023-02-18T01:47:48;46.67;;;25.42;;
60054;SDS011;45930;53.514;55.904;2023-02-18T01:48:50;37.73;;;22.97;;
60054;SDS011;45930;53.514;55.904;2023-02-18T01:49:59;46.28;;;23.08;;
60054;SDS011;45930;53.514;55.904;2023-02-18T01:51:22;45.07;;;24.10;;
60054;SDS011;45930;53.514;55.904;2023-02-18T01:52:22;43.85;;;21.83;;
60054;SDS011;45930;53.514;55.904;2023-02-18T01:53:27;41.83;;;22.38;;
60054;SDS011;45930;53.514;55.904;2023-02-18T01:54:43;41.72;;;22.55;;
60054;SDS011;45930;53.514;55.904;2023-02-18T01:55:48;40.00;;;23.00;;
60054;SDS011;45930;53.514;55.904;2023-02-18T01:56:56;40.35;;;22.02;;
60054;SDS011;45930;53.514;55.904;2023-02-18T01:57:58;36.58;;;22.73;;
60054;SDS011;45930;53.514;55.904;2023-02-18T01:59:00;47.53;;;20.97;;
60054;SDS011;45930;53.514;55.904;2023-02-18T02:00:09;39.10;;;21.67;;
60054;SDS011;45930;53.514;55.904;2023-02-18T02:01:12;37.85;;;21.95;;
60054;SDS011;45930;53.514;55.904;2023-02-18T02:02:16;42.45;;;20.90;;
60054;SDS011;45930;53.514;55.904;2023-02-18T02:03:20;37.20;;;21.88;;
60054;SDS011;45930;53.514;55.904;2023-02-18T02:04:21;40.73;;;20.63;;
60054;SDS011;45930;53.514;55.904;2023-02-18T02:05:21;39.63;;;22.83;;
60054;SDS011;45930;53.514;55.904;2023-02-18T02:06:22;44.13;;;24.93;;
60054;SDS011;45930;53.514;55.904;2023-02-18T02:07:25;47.30;;;25.83;;
60054;SDS011;45930;53.514;55.904;2023-02-18T02:08:28;47.65;;;25.80;;
60054;SDS011;45930;53.514;55.904;2023-02-18T02:09:29;46.08;;;23.67;;
60054;SDS011;45930;53.514;55.904;2023-02-18T02:15:03;38.78;;;22.25;;
60054;SDS011;45930;53.514;55.904;2023-02-18T02:16:09;39.40;;;20.50;;
60054;SDS011;45930;53.514;55.904;2023-02-18T02:30:12;36.35;;;19.90;;
60054;SDS011;45930;53.514;55.904;2023-02-18T02:35:35;39.65;;;21.52;;
60054;SDS011;45930;53.514;55.904;2023-02-18T02:42:03;48.65;;;27.13;;
60054;SDS011;45930;53.514;55.904;2023-02-18T02:45:58;40.38;;;22.25;;
60054;SDS011;45930;53.514;55.904;2023-02-18T02:47:10;41.92;;;21.88;;
60054;SDS011;45930;53.514;55.904;2023-02-18T02:51:47;46.20;;;22.67;;
60054;SDS011;45930;53.514;55.904;2023-02-18T02:52:52;46.47;;;24.42;;
60054;SDS011;45930;53.514;55.904;2023-02-18T02:54:31;40.15;;;22.95;;
60054;SDS011;45930;53.514;55.904;2023-02-18T02:55:26;40.67;;;23.05;;
60054;SDS011;45930;53.514;55.904;2023-02-18T02:56:27;43.00;;;22.40;;
60054;SDS011;45930;53.514;55.904;2023-02-18T02:58:30;36.03;;;21.30;;
60054;SDS011;45930;53.514;55.904;2023-02-18T02:59:31;51.42;;;23.75;;
60054;SDS011;45930;53.514;55.904;2023-02-18T03:00:37;42.92;;;23.52;;
60054;SDS011;45930;53.514;55.904;2023-02-18T03:02:15;41.13;;;21.63;;
60054;SDS011;45930;53.514;55.904;2023-02-18T03:03:32;42.20;;;21.88;;
60054;SDS011;45930;53.514;55.904;2023-02-18T03:11:14;43.05;;;21.95;;
60054;SDS011;45930;53.514;55.904;2023-02-18T03:18:06;48.40;;;23.25;;
60054;SDS011;45930;53.514;55.904;2023-02-18T03:18:59;44.58;;;21.73;;
60054;SDS011;45930;53.514;55.904;2023-02-18T03:20:22;35.40;;;20.17;;
60054;SDS011;45930;53.514;55.904;2023-02-18T03:21:25;37.70;;;19.48;;
60054;SDS011;45930;53.514;55.904;2023-02-18T03:22:31;38.90;;;20.60;;
60054;SDS011;45930;53.514;55.904;2023-02-18T03:23:54;39.78;;;21.20;;
60054;SDS011;45930;53.514;55.904;2023-02-18T03:24:58;40.42;;;21.63;;
60054;SDS011;45930;53.514;55.904;2023-02-18T03:25:59;38.03;;;21.63;;
60054;SDS011;45930;53.514;55.904;2023-02-18T03:27:14;42.20;;;20.30;;
60054;SDS011;45930;53.514;55.904;2023-02-18T03:28:37;40.08;;;20.05;;
60054;SDS011;45930;53.514;55.904;2023-02-18T03:29:42;40.63;;;20.70;;
60054;SDS011;45930;53.514;55.904;2023-02-18T03:30:53;35.78;;;21.02;;
60054;SDS011;45930;53.514;55.904;2023-02-18T03:31:59;38.22;;;20.25;;
60054;SDS011;45930;53.514;55.904;2023-02-18T03:33:04;39.53;;;22.35;;
60054;SDS011;45930;53.514;55.904;2023-02-18T03:34:10;37.03;;;19.58;;
60054;SDS011;45930;53.514;55.904;2023-02-18T03:35:16;43.78;;;21.08;;
60054;SDS011;45930;53.514;55.904;2023-02-18T03:36:18;36.17;;;21.17;;
60054;SDS011;45930;53.514;55.904;2023-02-18T03:37:20;45.85;;;22.40;;
60054;SDS011;45930;53.514;55.904;2023-02-18T03:38:26;40.72;;;22.33;;
60054;SDS011;45930;53.514;55.904;2023-02-18T03:39:31;38.03;;;22.50;;
60054;SDS011;45930;53.514;55.904;2023-02-18T03:40:35;47.08;;;22.70;;
60054;SDS011;45930;53.514;55.904;2023-02-18T03:41:36;42.77;;;22.87;;
60054;SDS011;45930;53.514;55.904;2023-02-18T03:42:37;44.10;;;24.07;;
60054;SDS011;45930;53.514;55.904;2023-02-18T03:43:39;38.97;;;23.03;;
60054;SDS011;45930;53.514;55.904;2023-02-18T03:44:40;46.35;;;24.80;;
60054;SDS011;45930;53.514;55.904;2023-02-18T03:45:41;39.90;;;21.50;;
60054;SDS011;45930;53.514;55.904;2023-02-18T03:46:42;38.70;;;22.17;;
60054;SDS011;45930;53.514;55.904;2023-02-18T03:47:44;41.28;;;22.17;;
60054;SDS011;45930;53.514;55.904;2023-02-18T03:48:45;43.22;;;22.33;;
60054;SDS011;45930;53.514;55.904;2023-02-18T03:49:46;44.13;;;22.13;;
60054;SDS011;45930;53.514;55.904;2023-02-18T03:50:47;44.17;;;22.50;;
60054;SDS011;45930;53.514;55.904;2023-02-18T03:51:47;48.43;;;22.90;;
60054;SDS011;45930;53.514;55.904;2023-02-18T03:52:48;41.87;;;22.67;;
60054;SDS011;45930;53.514;55.904;2023-02-18T03:53:50;45.20;;;23.35;;
60054;SDS011;45930;53.514;55.904;2023-02-18T03:54:50;40.03;;;20.93;;
60054;SDS011;45930;53.514;55.904;2023-02-18T03:55:51;39.60;;;20.30;;
60054;SDS011;45930;53.514;55.904;2023-02-18T03:56:52;36.63;;;20.20;;
60054;SDS011;45930;53.514;55.904;2023-02-18T03:57:53;35.70;;;19.30;;
60054;SDS011;45930;53.514;55.904;2023-02-18T03:58:53;33.03;;;18.17;;
60054;SDS011;45930;53.514;55.904;2023-02-18T03:59:55;36.63;;;19.23;;
60054;SDS011;45930;53.514;55.904;2023-02-18T04:00:55;38.38;;;17.83;;
60054;SDS011;45930;53.514;55.904;2023-02-18T04:01:56;34.00;;;17.47;;
60054;SDS011;45930;53.514;55.904;2023-02-18T04:02:57;37.73;;;20.80;;
60054;SDS011;45930;53.514;55.904;2023-02-18T04:03:58;42.50;;;19.50;;
60054;SDS011;45930;53.514;55.904;2023-02-18T04:05:00;33.77;;;19.67;;
60054;SDS011;45930;53.514;55.904;2023-02-18T04:06:01;31.23;;;19.83;;
60054;SDS011;45930;53.514;55.904;2023-02-18T04:07:01;33.13;;;18.25;;
60054;SDS011;45930;53.514;55.904;2023-02-18T04:08:02;37.83;;;19.57;;
60054;SDS011;45930;53.514;55.904;2023-02-18T04:09:04;33.67;;;18.27;;
60054;SDS011;45930;53.514;55.904;2023-02-18T04:10:08;38.70;;;20.65;;
60054;SDS011;45930;53.514;55.904;2023-02-18T04:11:09;42.38;;;20.13;;
60054;SDS011;45930;53.514;55.904;2023-02-18T04:12:10;45.20;;;21.53;;
60054;SDS011;45930;53.514;55.904;2023-02-18T04:13:11;46.07;;;21.83;;
60054;SDS011;45930;53.514;55.904;2023-02-18T04:14:12;39.50;;;19.93;;
60054;SDS011;45930;53.514;55.904;2023-02-18T04:15:14;45.75;;;20.92;;
60054;SDS011;45930;53.514;55.904;2023-02-18T04:16:14;45.13;;;21.77;;
60054;SDS011;45930;53.514;55.904;2023-02-18T04:17:15;40.20;;;21.27;;
60054;SDS011;45930;53.514;55.904;2023-02-18T04:18:16;43.60;;;21.13;;
60054;SDS011;45930;53.514;55.904;2023-02-18T04:19:17;35.63;;;19.30;;
60054;SDS011;45930;53.514;55.904;2023-02-18T04:20:18;37.10;;;19.90;;
60054;SDS011;45930;53.514;55.904;2023-02-18T04:21:19;37.87;;;20.37;;
60054;SDS011;45930;53.514;55.904;2023-02-18T04:22:20;46.90;;;22.43;;
60054;SDS011;45930;53.514;55.904;2023-02-18T04:23:20;36.93;;;21.37;;
60054;SDS011;45930;53.514;55.904;2023-02-18T04:24:22;38.05;;;21.30;;
60054;SDS011;45930;53.514;55.904;2023-02-18T04:25:23;42.70;;;21.93;;
60054;SDS011;45930;53.514;55.904;2023-02-18T04:26:23;37.97;;;21.07;;
60054;SDS011;45930;53.514;55.904;2023-02-18T04:27:24;38.03;;;20.97;;
60054;SDS011;45930;53.514;55.904;2023-02-18T04:28:25;35.20;;;20.50;;
60054;SDS011;45930;53.514;55.904;2023-02-18T04:29:26;45.93;;;21.90;;
60054;SDS011;45930;53.514;55.904;2023-02-18T04:30:26;44.00;;;21.47;;
60054;SDS011;45930;53.514;55.904;2023-02-18T04:31:27;43.05;;;21.48;;
60054;SDS011;45930;53.514;55.904;2023-02-18T04:32:31;37.77;;;20.27;;
60054;SDS011;45930;53.514;55.904;2023-02-18T04:33:32;41.67;;;22.42;;
60054;SDS011;45930;53.514;55.904;2023-02-18T04:34:32;39.33;;;21.23;;
60054;SDS011;45930;53.514;55.904;2023-02-18T04:35:33;43.33;;;22.63;;
60054;SDS011;45930;53.514;55.904;2023-02-18T04:36:36;33.90;;;20.25;;
60054;SDS011;45930;53.514;55.904;2023-02-18T04:37:36;36.07;;;19.50;;
60054;SDS011;45930;53.514;55.904;2023-02-18T04:38:37;39.03;;;19.17;;
60054;SDS011;45930;53.514;55.904;2023-02-18T04:39:38;43.87;;;21.30;;
60054;SDS011;45930;53.514;55.904;2023-02-18T04:40:41;50.88;;;22.23;;
60054;SDS011;45930;53.514;55.904;2023-02-18T04:41:42;29.97;;;19.27;;
60054;SDS011;45930;53.514;55.904;2023-02-18T04:42:43;34.67;;;19.50;;
60054;SDS011;45930;53.514;55.904;2023-02-18T04:43:44;33.87;;;18.63;;
60054;SDS011;45930;53.514;55.904;2023-02-18T04:44:44;39.37;;;18.17;;
60054;SDS011;45930;53.514;55.904;2023-02-18T04:45:45;35.07;;;19.23;;
60054;SDS011;45930;53.514;55.904;2023-02-18T04:46:46;43.10;;;21.20;;
60054;SDS011;45930;53.514;55.904;2023-02-18T04:47:47;36.23;;;19.70;;
60054;SDS011;45930;53.514;55.904;2023-02-18T04:48:48;41.90;;;20.60;;
60054;SDS011;45930;53.514;55.904;2023-02-18T04:49:48;35.10;;;19.70;;
60054;SDS011;45930;53.514;55.904;2023-02-18T04:50:49;35.67;;;20.33;;
60054;SDS011;45930;53.514;55.904;2023-02-18T04:51:50;35.93;;;20.63;;
60054;SDS011;45930;53.514;55.904;2023-02-18T04:52:51;37.63;;;19.30;;
60054;SDS011;45930;53.514;55.904;2023-02-18T04:53:51;34.17;;;19.53;;
60054;SDS011;45930;53.514;55.904;2023-02-18T04:54:52;34.17;;;19.37;;
60054;SDS011;45930;53.514;55.904;2023-02-18T04:55:53;41.63;;;20.80;;
60054;SDS011;45930;53.514;55.904;2023-02-18T04:56:54;39.80;;;20.27;;
60054;SDS011;45930;53.514;55.904;2023-02-18T04:57:54;37.17;;;19.47;;
60054;SDS011;45930;53.514;55.904;2023-02-18T04:58:55;35.60;;;20.07;;
60054;SDS011;45930;53.514;55.904;2023-02-18T04:59:56;39.70;;;20.70;;
60054;SDS011;45930;53.514;55.904;2023-02-18T05:01:00;36.03;;;20.90;;
60054;SDS011;45930;53.514;55.904;2023-02-18T05:02:02;37.22;;;19.88;;
60054;SDS011;45930;53.514;55.904;2023-02-18T05:03:03;32.15;;;19.75;;
60054;SDS011;45930;53.514;55.904;2023-02-18T05:04:04;34.33;;;19.33;;
60054;SDS011;45930;53.514;55.904;2023-02-18T05:05:05;39.80;;;20.17;;
60054;SDS011;45930;53.514;55.904;2023-02-18T05:06:06;38.30;;;20.50;;
60054;SDS011;45930;53.514;55.904;2023-02-18T05:07:07;38.27;;;19.37;;
60054;SDS011;45930;53.514;55.904;2023-02-18T05:08:07;37.77;;;20.53;;
60054;SDS011;45930;53.514;55.904;2023-02-18T05:09:08;39.93;;;21.07;;
60054;SDS011;45930;53.514;55.904;2023-02-18T05:10:10;38.30;;;22.33;;
60054;SDS011;45930;53.514;55.904;2023-02-18T05:11:16;33.60;;;19.65;;
60054;SDS011;45930;53.514;55.904;2023-02-18T05:12:17;35.27;;;19.90;;
60054;SDS011;45930;53.514;55.904;2023-02-18T05:13:18;37.67;;;20.77;;
60054;SDS011;45930;53.514;55.904;2023-02-18T05:14:18;37.93;;;21.50;;
60054;SDS011;45930;53.514;55.904;2023-02-18T05:15:19;43.10;;;20.90;;
60054;SDS011;45930;53.514;55.904;2023-02-18T05:16:20;37.97;;;21.20;;
60054;SDS011;45930;53.514;55.904;2023-02-18T05:17:21;38.27;;;20.67;;
60054;SDS011;45930;53.514;55.904;2023-02-18T05:18:24;39.03;;;21.80;;
60054;SDS011;45930;53.514;55.904;2023-02-18T05:19:25;40.23;;;22.20;;
60054;SDS011;45930;53.514;55.904;2023-02-18T05:20:26;36.50;;;20.63;;
60054;SDS011;45930;53.514;55.904;2023-02-18T05:21:26;43.37;;;22.63;;
60054;SDS011;45930;53.514;55.904;2023-02-18T05:22:27;37.57;;;20.60;;
60054;SDS011;45930;53.514;55.904;2023-02-18T05:23:28;39.93;;;21.77;;
60054;SDS011;45930;53.514;55.904;2023-02-18T05:24:29;33.97;;;20.63;;
60054;SDS011;45930;53.514;55.904;2023-02-18T05:25:29;35.77;;;20.53;;
60054;SDS011;45930;53.514;55.904;2023-02-18T05:26:30;37.80;;;22.10;;
60054;SDS011;45930;53.514;55.904;2023-02-18T05:27:31;38.90;;;21.80;;
60054;SDS011;45930;53.514;55.904;2023-02-18T05:28:32;35.17;;;21.20;;
60054;SDS011;45930;53.514;55.904;2023-02-18T05:29:33;42.58;;;27.02;;
60054;SDS011;45930;53.514;55.904;2023-02-18T05:30:33;44.57;;;25.57;;
60054;SDS011;45930;53.514;55.904;2023-02-18T05:31:34;44.40;;;27.63;;
60054;SDS011;45930;53.514;55.904;2023-02-18T05:32:37;40.22;;;26.92;;
60054;SDS011;45930;53.514;55.904;2023-02-18T05:33:38;41.83;;;25.57;;
60054;SDS011;45930;53.514;55.904;2023-02-18T05:34:39;43.67;;;26.70;;
60054;SDS011;45930;53.514;55.904;2023-02-18T05:35:39;44.23;;;26.90;;
60054;SDS011;45930;53.514;55.904;2023-02-18T05:36:40;46.40;;;29.13;;
60054;SDS011;45930;53.514;55.904;2023-02-18T05:37:41;52.27;;;32.53;;
60054;SDS011;45930;53.514;55.904;2023-02-18T05:38:42;43.97;;;28.37;;
60054;SDS011;45930;53.514;55.904;2023-02-18T05:39:43;35.47;;;24.80;;
60054;SDS011;45930;53.514;55.904;2023-02-18T05:40:44;37.33;;;22.55;;
60054;SDS011;45930;53.514;55.904;2023-02-18T05:41:45;38.53;;;22.17;;
60054;SDS011;45930;53.514;55.904;2023-02-18T05:42:46;34.47;;;21.77;;
60054;SDS011;45930;53.514;55.904;2023-02-18T05:43:46;35.83;;;21.37;;
60054;SDS011;45930;53.514;55.904;2023-02-18T05:45:06;34.60;;;20.85;;
60054;SDS011;45930;53.514;55.904;2023-02-18T05:46:07;30.48;;;20.33;;
60054;SDS011;45930;53.514;55.904;2023-02-18T05:47:09;36.03;;;20.83;;
60054;SDS011;45930;53.514;55.904;2023-02-18T05:48:11;31.85;;;19.02;;
60054;SDS011;45930;53.514;55.904;2023-02-18T05:49:12;30.23;;;18.23;;
60054;SDS011;45930;53.514;55.904;2023-02-18T05:50:13;37.37;;;20.27;;
60054;SDS011;45930;53.514;55.904;2023-02-18T05:51:14;37.27;;;20.80;;
60054;SDS011;45930;53.514;55.904;2023-02-18T05:52:18;36.35;;;20.88;;
60054;SDS011;45930;53.514;55.904;2023-02-18T05:53:19;43.25;;;22.02;;
60054;SDS011;45930;53.514;55.904;2023-02-18T05:54:19;59.80;;;32.43;;
60054;SDS011;45930;53.514;55.904;2023-02-18T05:55:20;76.78;;;41.60;;
60054;SDS011;45930;53.514;55.904;2023-02-18T05:56:22;79.97;;;40.50;;
60054;SDS011;45930;53.514;55.904;2023-02-18T05:57:23;66.17;;;32.77;;
60054;SDS011;45930;53.514;55.904;2023-02-18T05:58:24;50.15;;;24.85;;
60054;SDS011;45930;53.514;55.904;2023-02-18T05:59:25;55.57;;;28.53;;
60054;SDS011;45930;53.514;55.904;2023-02-18T06:00:26;47.20;;;25.50;;
60054;SDS011;45930;53.514;55.904;2023-02-18T06:01:29;37.55;;;20.95;;
60054;SDS011;45930;53.514;55.904;2023-02-18T06:02:30;43.43;;;24.53;;
60054;SDS011;45930;53.514;55.904;2023-02-18T06:03:30;41.53;;;24.03;;
60054;SDS011;45930;53.514;55.904;2023-02-18T06:04:31;43.80;;;23.53;;
60054;SDS011;45930;53.514;55.904;2023-02-18T06:05:32;41.63;;;23.37;;
60054;SDS011;45930;53.514;55.904;2023-02-18T06:06:33;35.72;;;23.45;;
60054;SDS011;45930;53.514;55.904;2023-02-18T06:07:34;36.15;;;22.17;;
60054;SDS011;45930;53.514;55.904;2023-02-18T06:08:35;41.67;;;21.50;;
60054;SDS011;45930;53.514;55.904;2023-02-18T06:09:36;31.33;;;18.47;;
60054;SDS011;45930;53.514;55.904;2023-02-18T06:10:36;33.67;;;18.53;;
60054;SDS011;45930;53.514;55.904;2023-02-18T06:11:39;32.00;;;18.58;;
60054;SDS011;45930;53.514;55.904;2023-02-18T06:12:40;34.53;;;19.13;;
60054;SDS011;45930;53.514;55.904;2023-02-18T06:13:41;30.40;;;17.90;;
60054;SDS011;45930;53.514;55.904;2023-02-18T06:14:41;31.73;;;18.73;;
60054;SDS011;45930;53.514;55.904;2023-02-18T06:15:42;32.50;;;18.80;;
60054;SDS011;45930;53.514;55.904;2023-02-18T06:16:43;31.97;;;20.27;;
60054;SDS011;45930;53.514;55.904;2023-02-18T06:17:44;31.83;;;19.97;;
60054;SDS011;45930;53.514;55.904;2023-02-18T06:18:45;31.43;;;17.53;;
60054;SDS011;45930;53.514;55.904;2023-02-18T06:19:45;31.33;;;17.50;;
60054;SDS011;45930;53.514;55.904;2023-02-18T06:20:47;28.47;;;18.40;;
60054;SDS011;45930;53.514;55.904;2023-02-18T06:21:48;30.83;;;17.45;;
60054;SDS011;45930;53.514;55.904;2023-02-18T06:22:49;28.20;;;16.40;;
60054;SDS011;45930;53.514;55.904;2023-02-18T06:23:50;32.63;;;19.87;;
60054;SDS011;45930;53.514;55.904;2023-02-18T06:24:51;34.30;;;18.83;;
60054;SDS011;45930;53.514;55.904;2023-02-18T06:25:52;28.80;;;18.60;;
60054;SDS011;45930;53.514;55.904;2023-02-18T06:26:53;26.87;;;16.90;;
60054;SDS011;45930;53.514;55.904;2023-02-18T06:27:53;32.63;;;16.83;;
60054;SDS011;45930;53.514;55.904;2023-02-18T06:28:54;30.47;;;18.57;;
60054;SDS011;45930;53.514;55.904;2023-02-18T06:29:55;31.40;;;17.87;;
60054;SDS011;45930;53.514;55.904;2023-02-18T06:30:56;33.37;;;17.77;;
60054;SDS011;45930;53.514;55.904;2023-02-18T06:31:57;24.67;;;16.80;;
60054;SDS011;45930;53.514;55.904;2023-02-18T06:32:58;29.13;;;17.35;;
60054;SDS011;45930;53.514;55.904;2023-02-18T06:33:59;31.43;;;17.90;;
60054;SDS011;45930;53.514;55.904;2023-02-18T06:35:00;28.83;;;16.80;;
60054;SDS011;45930;53.514;55.904;2023-02-18T06:36:02;34.60;;;18.03;;
60054;SDS011;45930;53.514;55.904;2023-02-18T06:37:06;30.85;;;18.35;;
60054;SDS011;45930;53.514;55.904;2023-02-18T06:38:07;38.23;;;18.47;;
60054;SDS011;45930;53.514;55.904;2023-02-18T06:39:08;30.70;;;19.10;;
60054;SDS011;45930;53.514;55.904;2023-02-18T06:40:09;30.57;;;18.87;;
60054;SDS011;45930;53.514;55.904;2023-02-18T06:41:11;29.13;;;19.05;;
60054;SDS011;45930;53.514;55.904;2023-02-18T06:42:13;33.30;;;19.17;;
60054;SDS011;45930;53.514;55.904;2023-02-18T06:43:13;38.00;;;20.67;;
60054;SDS011;45930;53.514;55.904;2023-02-18T06:44:14;34.40;;;19.93;;
60054;SDS011;45930;53.514;55.904;2023-02-18T06:45:16;36.53;;;20.52;;
60054;SDS011;45930;53.514;55.904;2023-02-18T06:46:17;34.47;;;19.70;;
60054;SDS011;45930;53.514;55.904;2023-02-18T06:47:18;39.20;;;21.53;;